createdAt,value
2023-08-07T00:00:30.069Z,11.9
2023-08-07T00:01:46.206Z,11.9
2023-08-07T00:03:02.339Z,11.9
2023-08-07T00:04:18.462Z,11.8
2023-08-07T00:05:34.605Z,11.8
2023-08-07T00:06:50.741Z,11.8
2023-08-07T00:08:06.862Z,11.8
2023-08-07T00:09:23.001Z,11.8
2023-08-07T00:10:39.123Z,11.8
2023-08-07T00:11:54.279Z,11.8
2023-08-07T00:13:10.410Z,11.8
2023-08-07T00:14:26.543Z,11.8
2023-08-07T00:15:42.674Z,11.8
2023-08-07T00:16:58.809Z,11.7
2023-08-07T00:18:14.941Z,11.7
2023-08-07T00:19:31.070Z,11.8
2023-08-07T00:20:47.210Z,11.8
2023-08-07T00:22:03.337Z,11.8
2023-08-07T00:23:19.474Z,11.8
2023-08-07T00:24:35.600Z,11.9
2023-08-07T00:25:51.726Z,11.9
2023-08-07T00:27:07.861Z,11.9
2023-08-07T00:28:23.016Z,11.9
2023-08-07T00:29:39.147Z,11.8
2023-08-07T00:30:55.283Z,11.8
2023-08-07T00:32:11.403Z,11.8
2023-08-07T00:33:27.537Z,11.8
2023-08-07T00:34:43.671Z,11.8
2023-08-07T00:35:59.803Z,11.9
2023-08-07T00:37:15.931Z,11.8
2023-08-07T00:38:32.067Z,11.8
2023-08-07T00:39:48.203Z,11.8
2023-08-07T00:41:04.338Z,11.9
2023-08-07T00:42:20.462Z,11.8
2023-08-07T00:43:36.601Z,11.8
2023-08-07T00:44:51.750Z,11.8
2023-08-07T00:46:07.877Z,11.8
2023-08-07T00:47:24.013Z,11.8
2023-08-07T00:48:40.141Z,11.8
2023-08-07T00:49:56.279Z,11.8
2023-08-07T00:51:12.405Z,11.7
2023-08-07T00:52:28.543Z,11.7
2023-08-07T00:53:44.000Z,11.7
2023-08-07T00:55:00.802Z,11.6
2023-08-07T00:56:16.937Z,11.6
2023-08-07T00:57:33.074Z,11.6
2023-08-07T00:58:49.198Z,11.5
2023-08-07T01:00:05.338Z,11.5
2023-08-07T01:01:21.465Z,11.5
2023-08-07T01:02:36.607Z,11.5
2023-08-07T01:03:52.741Z,11.5
2023-08-07T01:05:08.876Z,11.5
2023-08-07T01:06:25.015Z,11.6
2023-08-07T01:07:41.150Z,11.6
2023-08-07T01:08:57.271Z,11.6
2023-08-07T01:10:13.403Z,11.6
2023-08-07T01:11:29.541Z,11.6
2023-08-07T01:12:45.681Z,11.6
2023-08-07T01:14:01.804Z,11.6
2023-08-07T01:15:17.930Z,11.6
2023-08-07T01:16:34.067Z,11.5
2023-08-07T01:17:50.210Z,11.5
2023-08-07T01:19:05.353Z,11.5
2023-08-07T01:20:21.486Z,11.6
2023-08-07T01:21:37.618Z,11.6
2023-08-07T01:22:53.746Z,11.6
2023-08-07T01:24:09.877Z,11.6
2023-08-07T01:25:26.013Z,11.6
2023-08-07T01:26:42.147Z,11.5
2023-08-07T01:27:58.271Z,11.5
2023-08-07T01:29:14.397Z,11.5
2023-08-07T01:30:30.540Z,11.5
2023-08-07T01:31:46.674Z,11.6
2023-08-07T01:33:02.795Z,11.6
2023-08-07T01:34:18.928Z,11.6
2023-08-07T01:35:34.091Z,11.6
2023-08-07T01:36:50.217Z,11.6
2023-08-07T01:38:06.347Z,11.6
2023-08-07T01:39:22.490Z,11.6
2023-08-07T01:40:38.613Z,11.6
2023-08-07T01:41:54.747Z,11.6
2023-08-07T01:43:10.886Z,11.7
2023-08-07T01:44:27.021Z,11.7
2023-08-07T01:45:43.150Z,11.7
2023-08-07T01:46:59.278Z,11.7
2023-08-07T01:48:15.417Z,11.7
2023-08-07T01:49:31.537Z,11.7
2023-08-07T01:50:47.674Z,11.7
2023-08-07T01:52:03.802Z,11.7
2023-08-07T01:53:18.961Z,11.7
2023-08-07T01:54:35.091Z,11.7
2023-08-07T01:55:51.220Z,11.7
2023-08-07T01:57:07.359Z,11.7
2023-08-07T01:58:23.487Z,11.7
2023-08-07T01:59:39.615Z,11.7
2023-08-07T02:00:55.752Z,11.7
2023-08-07T02:02:11.888Z,11.7
2023-08-07T02:03:28.010Z,11.7
2023-08-07T02:04:44.143Z,11.6
2023-08-07T02:06:00.274Z,11.6
2023-08-07T02:07:16.408Z,11.6
2023-08-07T02:08:32.536Z,11.6
2023-08-07T02:09:47.690Z,11.6
2023-08-07T02:11:03.822Z,11.5
2023-08-07T02:12:19.958Z,11.5
2023-08-07T02:13:36.087Z,11.5
2023-08-07T02:14:52.209Z,11.4
2023-08-07T02:16:08.351Z,11.4
2023-08-07T02:17:24.484Z,11.3
2023-08-07T02:18:40.620Z,11.3
2023-08-07T02:19:56.756Z,11.3
2023-08-07T02:21:12.886Z,11.3
2023-08-07T02:22:29.012Z,11.3
2023-08-07T02:23:45.144Z,11.2
2023-08-07T02:25:01.287Z,11.2
2023-08-07T02:26:16.432Z,11.2
2023-08-07T02:27:32.562Z,11.1
2023-08-07T02:28:48.689Z,11.1
2023-08-07T02:30:04.829Z,11
2023-08-07T02:31:20.959Z,11
2023-08-07T02:32:37.096Z,11
2023-08-07T02:33:53.230Z,10.9
2023-08-07T02:35:09.348Z,10.9
2023-08-07T02:36:25.483Z,10.9
2023-08-07T02:37:41.621Z,10.9
2023-08-07T02:38:57.753Z,10.9
2023-08-07T02:40:13.882Z,10.9
2023-08-07T02:41:30.015Z,10.9
2023-08-07T02:42:46.145Z,10.9
2023-08-07T02:44:01.295Z,10.9
2023-08-07T02:45:17.433Z,10.9
2023-08-07T02:46:33.564Z,10.9
2023-08-07T02:47:49.701Z,11
2023-08-07T02:49:05.820Z,11
2023-08-07T02:50:21.967Z,10.9
2023-08-07T02:51:38.086Z,10.9
2023-08-07T02:52:54.225Z,10.9
2023-08-07T02:54:10.361Z,10.9
2023-08-07T02:55:26.490Z,10.9
2023-08-07T02:56:42.621Z,10.8
2023-08-07T02:57:58.754Z,10.8
2023-08-07T02:59:14.884Z,10.8
2023-08-07T03:00:30.047Z,10.8
2023-08-07T03:01:46.185Z,10.8
2023-08-07T03:03:02.313Z,10.8
2023-08-07T03:04:18.443Z,10.7
2023-08-07T03:05:34.561Z,10.8
2023-08-07T03:06:50.704Z,10.8
2023-08-07T03:08:06.842Z,10.7
2023-08-07T03:09:22.969Z,10.8
2023-08-07T03:10:39.107Z,10.8
2023-08-07T03:11:55.231Z,10.8
2023-08-07T03:13:11.376Z,10.8
2023-08-07T03:14:27.505Z,10.8
2023-08-07T03:15:43.614Z,10.8
2023-08-07T03:16:59.884Z,10.8
2023-08-07T03:18:16.021Z,10.8
2023-08-07T03:19:32.157Z,10.8
2023-08-07T03:20:48.289Z,10.8
2023-08-07T03:22:04.412Z,10.8
2023-08-07T03:23:20.550Z,10.8
2023-08-07T03:24:36.684Z,10.8
2023-08-07T03:25:52.813Z,10.8
2023-08-07T03:27:08.940Z,10.8
2023-08-07T03:28:25.080Z,10.8
2023-08-07T03:29:41.211Z,10.8
2023-08-07T03:30:57.000Z,10.9
2023-08-07T03:32:13.471Z,10.8
2023-08-07T03:33:29.603Z,10.9
2023-08-07T03:34:44.755Z,10.9
2023-08-07T03:36:00.888Z,10.9
2023-08-07T03:37:17.017Z,10.9
2023-08-07T03:38:33.153Z,10.9
2023-08-07T03:39:49.289Z,10.9
2023-08-07T03:41:05.422Z,10.9
2023-08-07T03:42:21.549Z,11
2023-08-07T03:43:37.679Z,11
2023-08-07T03:44:53.809Z,11
2023-08-07T03:46:09.949Z,11
2023-08-07T03:47:26.079Z,11
2023-08-07T03:48:42.211Z,11.1
2023-08-07T03:49:58.339Z,11.1
2023-08-07T03:51:13.494Z,11.1
2023-08-07T03:52:29.630Z,11.1
2023-08-07T03:53:45.757Z,11.1
2023-08-07T03:55:01.890Z,11.1
2023-08-07T03:56:18.021Z,11.1
2023-08-07T03:57:34.148Z,11.2
2023-08-07T03:58:50.285Z,11.2
2023-08-07T04:00:06.417Z,11.2
2023-08-07T04:01:22.566Z,11.2
2023-08-07T04:02:38.685Z,11.2
2023-08-07T04:03:54.817Z,11.2
2023-08-07T04:05:10.946Z,11.2
2023-08-07T04:06:27.078Z,11.2
2023-08-07T04:07:42.230Z,11.2
2023-08-07T04:08:58.356Z,11.2
2023-08-07T04:10:14.498Z,11.2
2023-08-07T04:11:30.628Z,11.2
2023-08-07T04:12:46.756Z,11.3
2023-08-07T04:14:02.893Z,11.3
2023-08-07T04:15:19.029Z,11.3
2023-08-07T04:16:35.154Z,11.3
2023-08-07T04:17:51.295Z,11.3
2023-08-07T04:19:07.419Z,11.3
2023-08-07T04:20:23.542Z,11.3
2023-08-07T04:21:39.681Z,11.3
2023-08-07T04:22:55.817Z,11.3
2023-08-07T04:24:11.947Z,11.3
2023-08-07T04:25:27.102Z,11.2
2023-08-07T04:26:43.226Z,11.1
2023-08-07T04:27:59.351Z,11
2023-08-07T04:29:15.497Z,11
2023-08-07T04:30:31.634Z,10.9
2023-08-07T04:31:47.761Z,10.9
2023-08-07T04:33:03.907Z,10.9
2023-08-07T04:34:20.019Z,10.9
2023-08-07T04:35:36.150Z,10.8
2023-08-07T04:36:52.279Z,10.8
2023-08-07T04:38:08.416Z,10.8
2023-08-07T04:39:24.554Z,10.8
2023-08-07T04:40:40.682Z,10.8
2023-08-07T04:41:56.821Z,10.8
2023-08-07T04:43:11.972Z,10.8
2023-08-07T04:44:28.100Z,10.8
2023-08-07T04:45:44.221Z,10.8
2023-08-07T04:47:00.358Z,10.8
2023-08-07T04:48:16.490Z,10.8
2023-08-07T04:49:32.621Z,10.8
2023-08-07T04:50:48.762Z,10.7
2023-08-07T04:52:04.887Z,10.8
2023-08-07T04:53:21.018Z,10.8
2023-08-07T04:54:37.148Z,10.9
2023-08-07T04:55:53.281Z,10.9
2023-08-07T04:57:09.420Z,11
2023-08-07T04:58:25.552Z,11
2023-08-07T04:59:40.700Z,11.1
2023-08-07T05:00:56.836Z,11.2
2023-08-07T05:02:12.973Z,11.2
2023-08-07T05:03:29.100Z,11.3
2023-08-07T05:04:45.230Z,11.4
2023-08-07T05:06:01.363Z,11.5
2023-08-07T05:07:17.494Z,11.6
2023-08-07T05:08:33.626Z,11.6
2023-08-07T05:09:49.763Z,11.7
2023-08-07T05:11:05.890Z,11.7
2023-08-07T05:12:22.022Z,11.8
2023-08-07T05:13:38.153Z,11.8
2023-08-07T05:14:54.291Z,11.9
2023-08-07T05:16:09.442Z,11.9
2023-08-07T05:17:25.569Z,11.9
2023-08-07T05:18:41.689Z,12
2023-08-07T05:19:57.836Z,12
2023-08-07T05:21:13.963Z,12
2023-08-07T05:22:30.094Z,12
2023-08-07T05:23:46.227Z,12
2023-08-07T05:25:02.360Z,12.1
2023-08-07T05:26:18.493Z,12.1
2023-08-07T05:27:34.628Z,12.1
2023-08-07T05:28:50.765Z,12.1
2023-08-07T05:30:06.891Z,12.2
2023-08-07T05:31:23.007Z,12.2
2023-08-07T05:32:38.177Z,12.2
2023-08-07T05:33:54.297Z,12.3
2023-08-07T05:35:10.437Z,12.3
2023-08-07T05:36:26.558Z,12.3
2023-08-07T05:37:42.692Z,12.3
2023-08-07T05:38:58.829Z,12.2
2023-08-07T05:40:14.964Z,12.2
2023-08-07T05:41:31.096Z,12.2
2023-08-07T05:42:47.228Z,12.2
2023-08-07T05:44:03.356Z,12.2
2023-08-07T05:45:19.494Z,12.2
2023-08-07T05:46:35.618Z,12.2
2023-08-07T05:47:51.757Z,12.1
2023-08-07T05:49:06.911Z,12.1
2023-08-07T05:50:23.046Z,12.1
2023-08-07T05:51:39.170Z,12.2
2023-08-07T05:52:55.300Z,12.2
2023-08-07T05:54:11.428Z,12.3
2023-08-07T05:55:27.569Z,12.3
2023-08-07T05:56:43.693Z,12.4
2023-08-07T05:57:59.833Z,12.5
2023-08-07T05:59:15.959Z,12.7
2023-08-07T06:00:32.096Z,12.8
2023-08-07T06:01:48.230Z,12.8
2023-08-07T06:03:04.354Z,12.9
2023-08-07T06:04:20.491Z,13
2023-08-07T06:05:35.633Z,13.1
2023-08-07T06:06:51.763Z,13.2
2023-08-07T06:08:07.900Z,13.3
2023-08-07T06:09:24.036Z,13.4
2023-08-07T06:10:40.176Z,13.4
2023-08-07T06:11:56.301Z,13.5
2023-08-07T06:13:12.440Z,13.5
2023-08-07T06:14:28.562Z,13.5
2023-08-07T06:15:44.696Z,13.5
2023-08-07T06:17:00.830Z,13.5
2023-08-07T06:18:16.961Z,13.6
2023-08-07T06:19:33.096Z,13.6
2023-08-07T06:20:49.228Z,13.7
2023-08-07T06:22:04.371Z,13.8
2023-08-07T06:23:20.506Z,13.9
2023-08-07T06:24:36.641Z,14
2023-08-07T06:25:52.766Z,14
2023-08-07T06:27:08.898Z,14.1
2023-08-07T06:28:25.035Z,14.1
2023-08-07T06:29:41.168Z,14.1
2023-08-07T06:30:57.293Z,14.2
2023-08-07T06:32:13.435Z,14.4
2023-08-07T06:33:29.574Z,14.5
2023-08-07T06:34:45.692Z,14.6
2023-08-07T06:36:01.827Z,14.7
2023-08-07T06:37:17.950Z,14.8
2023-08-07T06:38:34.098Z,14.8
2023-08-07T06:39:49.242Z,14.8
2023-08-07T06:41:05.368Z,14.8
2023-08-07T06:42:21.506Z,14.9
2023-08-07T06:43:37.633Z,15.1
2023-08-07T06:44:53.764Z,15.3
2023-08-07T06:46:09.899Z,15.4
2023-08-07T06:47:26.030Z,15.3
2023-08-07T06:48:42.161Z,15.3
2023-08-07T06:49:58.303Z,15.3
2023-08-07T06:51:14.420Z,15.2
2023-08-07T06:52:30.560Z,15.2
2023-08-07T06:53:46.698Z,15.3
2023-08-07T06:55:02.819Z,15.2
2023-08-07T06:56:17.964Z,15.2
2023-08-07T06:57:34.098Z,15.1
2023-08-07T06:58:50.234Z,15
2023-08-07T07:00:06.360Z,14.8
2023-08-07T07:01:22.507Z,14.8
2023-08-07T07:02:38.630Z,14.7
2023-08-07T07:03:54.000Z,14.6
2023-08-07T07:05:10.899Z,14.7
2023-08-07T07:06:27.023Z,14.9
2023-08-07T07:07:43.172Z,14.9
2023-08-07T07:08:59.292Z,15
2023-08-07T07:10:15.429Z,15.1
2023-08-07T07:11:31.562Z,15.1
2023-08-07T07:12:46.705Z,15.1
2023-08-07T07:14:02.842Z,15
2023-08-07T07:15:18.000Z,14.9
2023-08-07T07:16:34.130Z,14.9
2023-08-07T07:17:50.261Z,14.8
2023-08-07T07:19:06.390Z,14.8
2023-08-07T07:20:22.534Z,14.9
2023-08-07T07:21:38.660Z,14.8
2023-08-07T07:22:54.794Z,14.7
2023-08-07T07:24:10.922Z,14.6
2023-08-07T07:25:27.050Z,14.6
2023-08-07T07:26:43.192Z,14.5
2023-08-07T07:27:59.319Z,14.5
2023-08-07T07:29:15.460Z,14.6
2023-08-07T07:30:31.586Z,14.6
2023-08-07T07:31:46.736Z,14.7
2023-08-07T07:33:02.866Z,14.6
2023-08-07T07:34:19.001Z,14.6
2023-08-07T07:35:35.130Z,14.5
2023-08-07T07:36:51.265Z,14.5
2023-08-07T07:38:07.400Z,14.5
2023-08-07T07:39:23.517Z,14.5
2023-08-07T07:40:39.657Z,14.5
2023-08-07T07:41:55.783Z,14.6
2023-08-07T07:43:11.923Z,14.6
2023-08-07T07:44:28.055Z,14.5
2023-08-07T07:45:44.181Z,14.5
2023-08-07T07:47:00.312Z,14.5
2023-08-07T07:48:15.464Z,14.5
2023-08-07T07:49:31.601Z,14.5
2023-08-07T07:50:47.732Z,14.6
2023-08-07T07:52:03.861Z,14.7
2023-08-07T07:53:19.990Z,14.8
2023-08-07T07:54:36.130Z,14.9
2023-08-07T07:55:52.259Z,14.9
2023-08-07T07:57:08.000Z,14.9
2023-08-07T07:58:24.512Z,15
2023-08-07T07:59:40.661Z,15
2023-08-07T08:00:56.793Z,15.1
2023-08-07T08:02:12.921Z,15.1
2023-08-07T08:03:29.058Z,15.1
2023-08-07T08:04:44.202Z,15.2
2023-08-07T08:06:00.335Z,15.1
2023-08-07T08:07:16.472Z,15
2023-08-07T08:08:32.585Z,14.9
2023-08-07T08:09:48.728Z,15
2023-08-07T08:11:04.859Z,15.1
2023-08-07T08:12:20.996Z,15.2
2023-08-07T08:13:37.124Z,15.3
2023-08-07T08:14:53.257Z,15.4
2023-08-07T08:16:09.391Z,15.4
2023-08-07T08:17:25.507Z,15.4
2023-08-07T08:18:41.651Z,15.5
2023-08-07T08:19:57.787Z,15.7
2023-08-07T08:21:12.944Z,15.7
2023-08-07T08:22:29.072Z,15.6
2023-08-07T08:23:45.198Z,15.8
2023-08-07T08:25:01.337Z,16
2023-08-07T08:26:17.463Z,16.1
2023-08-07T08:27:33.593Z,16.2
2023-08-07T08:28:49.730Z,16.3
2023-08-07T08:30:05.867Z,16.3
2023-08-07T08:31:21.996Z,16.2
2023-08-07T08:32:38.129Z,16.2
2023-08-07T08:33:54.257Z,16.3
2023-08-07T08:35:10.394Z,16.4
2023-08-07T08:36:26.527Z,16.5
2023-08-07T08:37:41.670Z,16.6
2023-08-07T08:38:57.803Z,16.6
2023-08-07T08:40:13.932Z,16.6
2023-08-07T08:41:30.068Z,16.6
2023-08-07T08:42:46.201Z,16.7
2023-08-07T08:44:02.322Z,16.7
2023-08-07T08:45:18.464Z,16.7
2023-08-07T08:46:34.601Z,16.7
2023-08-07T08:47:50.720Z,16.8
2023-08-07T08:49:06.849Z,16.8
2023-08-07T08:50:22.992Z,16.9
2023-08-07T08:51:39.113Z,16.9
2023-08-07T08:52:55.253Z,16.8
2023-08-07T08:54:10.406Z,16.8
2023-08-07T08:55:26.537Z,16.8
2023-08-07T08:56:42.673Z,16.9
2023-08-07T08:57:58.795Z,16.8
2023-08-07T08:59:14.936Z,16.7
2023-08-07T09:00:31.070Z,16.8
2023-08-07T09:01:47.200Z,16.8
2023-08-07T09:03:03.331Z,17
2023-08-07T09:04:19.450Z,17.1
2023-08-07T09:05:35.598Z,17
2023-08-07T09:06:51.727Z,17.3
2023-08-07T09:08:07.855Z,17.4
2023-08-07T09:09:23.993Z,17.7
2023-08-07T09:10:40.129Z,17.8
2023-08-07T09:11:55.271Z,17.9
2023-08-07T09:13:11.399Z,17.7
2023-08-07T09:14:27.538Z,17.5
2023-08-07T09:15:43.667Z,17.5
2023-08-07T09:16:59.810Z,17.4
2023-08-07T09:18:15.930Z,17.3
2023-08-07T09:19:32.083Z,17.3
2023-08-07T09:20:48.204Z,17.4
2023-08-07T09:22:04.326Z,17.6
2023-08-07T09:23:20.469Z,17.7
2023-08-07T09:24:36.594Z,18.1
2023-08-07T09:25:52.736Z,18.5
2023-08-07T09:27:08.869Z,18.6
2023-08-07T09:28:24.995Z,19.1
2023-08-07T09:29:40.151Z,19.2
2023-08-07T09:30:56.275Z,19.1
2023-08-07T09:32:12.415Z,18.9
2023-08-07T09:33:28.532Z,18.8
2023-08-07T09:34:44.672Z,18.5
2023-08-07T09:36:00.807Z,18.4
2023-08-07T09:37:16.935Z,18.3
2023-08-07T09:38:33.060Z,18.1
2023-08-07T09:39:49.196Z,18.2
2023-08-07T09:41:05.337Z,18
2023-08-07T09:42:21.465Z,17.9
2023-08-07T09:43:37.588Z,17.8
2023-08-07T09:44:53.727Z,17.7
2023-08-07T09:46:08.876Z,17.6
2023-08-07T09:47:25.008Z,17.6
2023-08-07T09:48:41.143Z,17.7
2023-08-07T09:49:57.272Z,17.5
2023-08-07T09:51:13.390Z,17.3
2023-08-07T09:52:29.535Z,17.2
2023-08-07T09:53:45.664Z,17.3
2023-08-07T09:55:01.794Z,17.5
2023-08-07T09:56:17.930Z,17.5
2023-08-07T09:57:34.066Z,17.5
2023-08-07T09:58:50.181Z,17.5
2023-08-07T10:00:06.330Z,17.9
2023-08-07T10:01:22.459Z,18.1
2023-08-07T10:02:37.602Z,18.5
2023-08-07T10:03:53.740Z,18.8
2023-08-07T10:05:09.869Z,19
2023-08-07T10:06:26.005Z,19.2
2023-08-07T10:07:42.140Z,19.4
2023-08-07T10:08:58.260Z,19.5
2023-08-07T10:10:14.400Z,19.7
2023-08-07T10:11:30.537Z,19.8
2023-08-07T10:12:46.666Z,19.8
2023-08-07T10:14:02.794Z,19.8
2023-08-07T10:15:18.925Z,19.9
2023-08-07T10:16:35.062Z,19.8
2023-08-07T10:17:51.195Z,19.8
2023-08-07T10:19:07.320Z,20
2023-08-07T10:20:22.470Z,20
2023-08-07T10:21:38.605Z,20.5
2023-08-07T10:22:54.734Z,21
2023-08-07T10:24:10.861Z,21.6
2023-08-07T10:25:26.996Z,21.9
2023-08-07T10:26:43.130Z,22
2023-08-07T10:27:59.267Z,21.9
2023-08-07T10:29:15.392Z,21.7
2023-08-07T10:30:31.526Z,21.6
2023-08-07T10:31:47.660Z,21.5
2023-08-07T10:33:03.791Z,21.4
2023-08-07T10:34:19.925Z,21.3
2023-08-07T10:35:36.054Z,21.1
2023-08-07T10:36:51.207Z,20.9
2023-08-07T10:38:07.340Z,20.8
2023-08-07T10:39:23.462Z,20.7
2023-08-07T10:40:39.599Z,20.6
2023-08-07T10:41:55.732Z,20.4
2023-08-07T10:43:11.861Z,20.4
2023-08-07T10:44:28.000Z,20.2
2023-08-07T10:45:44.127Z,20.1
2023-08-07T10:47:00.248Z,20
2023-08-07T10:48:16.401Z,20.1
2023-08-07T10:49:32.532Z,20.2
2023-08-07T10:50:48.662Z,20.2
2023-08-07T10:52:04.789Z,20
2023-08-07T10:53:19.939Z,19.9
2023-08-07T10:54:36.067Z,19.6
2023-08-07T10:55:52.207Z,19.2
2023-08-07T10:57:08.334Z,18.8
2023-08-07T10:58:24.474Z,18.6
2023-08-07T10:59:40.600Z,18.5
2023-08-07T11:00:56.732Z,18.4
2023-08-07T11:02:12.863Z,18.4
2023-08-07T11:03:28.999Z,18.5
2023-08-07T11:04:45.131Z,18.5
2023-08-07T11:06:01.250Z,18.6
2023-08-07T11:07:17.396Z,18.6
2023-08-07T11:08:33.526Z,18.7
2023-08-07T11:09:48.675Z,18.8
2023-08-07T11:11:04.800Z,18.9
2023-08-07T11:12:20.940Z,19
2023-08-07T11:13:37.062Z,19.1
2023-08-07T11:14:53.208Z,19.1
2023-08-07T11:16:09.326Z,19.1
2023-08-07T11:17:25.459Z,19.1
2023-08-07T11:18:41.600Z,19
2023-08-07T11:19:57.729Z,18.8
2023-08-07T11:21:13.860Z,18.6
2023-08-07T11:22:29.995Z,18.6
2023-08-07T11:23:46.123Z,18.6
2023-08-07T11:25:02.256Z,18.5
2023-08-07T11:26:17.402Z,18.5
2023-08-07T11:27:33.538Z,18.4
2023-08-07T11:28:49.669Z,18.4
2023-08-07T11:30:05.795Z,18.3
2023-08-07T11:31:21.934Z,18.4
2023-08-07T11:32:37.090Z,18.3
2023-08-07T11:33:53.221Z,18.2
2023-08-07T11:35:09.354Z,18
2023-08-07T11:36:25.501Z,17.9
2023-08-07T11:37:41.617Z,17.8
2023-08-07T11:38:57.750Z,17.7
2023-08-07T11:40:13.880Z,17.5
2023-08-07T11:41:30.018Z,17.4
2023-08-07T11:42:46.148Z,17.3
2023-08-07T11:44:02.286Z,17.3
2023-08-07T11:45:18.418Z,17.4
2023-08-07T11:46:34.522Z,17.5
2023-08-07T11:47:50.671Z,17.5
2023-08-07T11:49:05.822Z,17.5
2023-08-07T11:50:21.948Z,17.5
2023-08-07T11:51:38.088Z,17.5
2023-08-07T11:52:54.220Z,17.5
2023-08-07T11:54:10.349Z,17.5
2023-08-07T11:55:26.000Z,17.6
2023-08-07T11:56:42.610Z,17.6
2023-08-07T11:57:58.742Z,17.6
2023-08-07T11:59:14.885Z,17.6
2023-08-07T12:00:31.004Z,17.6
2023-08-07T12:01:47.141Z,17.5
2023-08-07T12:03:03.270Z,17.4
2023-08-07T12:04:19.397Z,17.4
2023-08-07T12:05:34.557Z,17.4
2023-08-07T12:06:50.680Z,17.5
2023-08-07T12:08:06.817Z,17.6
2023-08-07T12:09:22.946Z,17.7
2023-08-07T12:10:39.086Z,17.7
2023-08-07T12:11:55.208Z,17.7
2023-08-07T12:13:11.343Z,17.8
2023-08-07T12:14:27.473Z,17.8
2023-08-07T12:15:43.612Z,17.9
2023-08-07T12:16:59.740Z,17.8
2023-08-07T12:18:15.880Z,17.9
2023-08-07T12:19:32.009Z,17.8
2023-08-07T12:20:48.146Z,17.8
2023-08-07T12:22:03.292Z,17.6
2023-08-07T12:23:19.417Z,17.5
2023-08-07T12:24:35.551Z,17.5
2023-08-07T12:25:51.689Z,17.4
2023-08-07T12:27:07.812Z,17.4
2023-08-07T12:28:23.947Z,17.4
2023-08-07T12:29:40.084Z,17.5
2023-08-07T12:30:56.193Z,17.5
2023-08-07T12:32:12.342Z,17.6
2023-08-07T12:33:28.476Z,17.7
2023-08-07T12:34:44.612Z,17.6
2023-08-07T12:36:00.739Z,17.6
2023-08-07T12:37:16.876Z,17.7
2023-08-07T12:38:32.029Z,17.7
2023-08-07T12:39:48.159Z,17.8
2023-08-07T12:41:04.280Z,17.8
2023-08-07T12:42:20.418Z,17.9
2023-08-07T12:43:36.559Z,18
2023-08-07T12:44:52.674Z,18
2023-08-07T12:46:08.812Z,18
2023-08-07T12:47:24.942Z,17.9
2023-08-07T12:48:41.000Z,17.9
2023-08-07T12:49:57.204Z,17.8
2023-08-07T12:51:13.336Z,17.7
2023-08-07T12:52:29.470Z,17.7
2023-08-07T12:53:45.603Z,17.6
2023-08-07T12:55:00.743Z,17.4
2023-08-07T12:56:16.887Z,17.4
2023-08-07T12:57:33.023Z,17.2
2023-08-07T12:58:49.150Z,17
2023-08-07T13:00:05.286Z,16.8
2023-08-07T13:01:21.410Z,16.8
2023-08-07T13:02:37.558Z,16.7
2023-08-07T13:03:53.684Z,16.6
2023-08-07T13:05:09.812Z,16.6
2023-08-07T13:06:25.952Z,16.6
2023-08-07T13:07:42.078Z,16.6
2023-08-07T13:08:58.000Z,16.6
2023-08-07T13:10:14.347Z,16.7
2023-08-07T13:11:29.495Z,16.9
2023-08-07T13:12:45.627Z,17
2023-08-07T13:14:01.767Z,17.1
2023-08-07T13:15:17.893Z,17.2
2023-08-07T13:16:34.023Z,17.3
2023-08-07T13:17:50.161Z,17.4
2023-08-07T13:19:06.287Z,17.5
2023-08-07T13:20:22.422Z,17.6
2023-08-07T13:21:38.557Z,17.7
2023-08-07T13:22:54.679Z,17.8
2023-08-07T13:24:10.813Z,17.9
2023-08-07T13:25:26.944Z,17.9
2023-08-07T13:26:43.082Z,18
2023-08-07T13:27:58.231Z,18
2023-08-07T13:29:14.369Z,18.1
2023-08-07T13:30:30.496Z,18.2
2023-08-07T13:31:46.634Z,18.1
2023-08-07T13:33:02.766Z,18.1
2023-08-07T13:34:18.891Z,18
2023-08-07T13:35:35.018Z,17.9
2023-08-07T13:36:51.156Z,17.9
2023-08-07T13:38:07.290Z,17.9
2023-08-07T13:39:23.421Z,17.9
2023-08-07T13:40:39.560Z,17.8
2023-08-07T13:41:55.690Z,17.8
2023-08-07T13:43:11.823Z,17.7
2023-08-07T13:44:26.961Z,17.7
2023-08-07T13:45:43.096Z,17.8
2023-08-07T13:46:59.232Z,17.7
2023-08-07T13:48:15.370Z,17.6
2023-08-07T13:49:31.489Z,17.5
2023-08-07T13:50:47.630Z,17.5
2023-08-07T13:52:03.767Z,17.5
2023-08-07T13:53:19.899Z,17.4
2023-08-07T13:54:36.000Z,17.5
2023-08-07T13:55:52.155Z,17.5
2023-08-07T13:57:08.283Z,17.6
2023-08-07T13:58:24.422Z,17.7
2023-08-07T13:59:40.559Z,17.7
2023-08-07T14:00:55.700Z,17.7
2023-08-07T14:02:11.830Z,17.7
2023-08-07T14:03:27.972Z,17.7
2023-08-07T14:04:44.088Z,17.7
2023-08-07T14:06:00.221Z,17.8
2023-08-07T14:07:16.356Z,17.9
2023-08-07T14:08:32.503Z,18
2023-08-07T14:09:48.629Z,18.1
2023-08-07T14:11:04.767Z,18.1
2023-08-07T14:12:20.895Z,18
2023-08-07T14:13:37.036Z,17.9
2023-08-07T14:14:53.159Z,17.8
2023-08-07T14:16:09.290Z,17.7
2023-08-07T14:17:24.439Z,17.7
2023-08-07T14:18:40.579Z,17.8
2023-08-07T14:19:56.705Z,17.8
2023-08-07T14:21:04.000Z,17.8
2023-08-07T14:22:28.978Z,17.8
2023-08-07T14:23:45.116Z,17.8
2023-08-07T14:25:01.231Z,17.8
2023-08-07T14:26:17.370Z,17.8
2023-08-07T14:27:33.498Z,17.8
2023-08-07T14:28:49.630Z,17.8
2023-08-07T14:30:05.767Z,17.7
2023-08-07T14:31:21.897Z,17.7
2023-08-07T14:32:38.036Z,17.6
2023-08-07T14:33:53.181Z,17.5
2023-08-07T14:35:09.317Z,17.4
2023-08-07T14:36:25.440Z,17.4
2023-08-07T14:37:41.574Z,17.4
2023-08-07T14:38:57.000Z,17.4
2023-08-07T14:40:13.839Z,17.4
2023-08-07T14:41:29.969Z,17.5
2023-08-07T14:42:46.101Z,17.5
2023-08-07T14:44:02.237Z,17.6
2023-08-07T14:45:18.367Z,17.6
2023-08-07T14:46:34.502Z,17.6
2023-08-07T14:47:50.632Z,17.6
2023-08-07T14:49:06.762Z,17.6
2023-08-07T14:50:21.914Z,17.6
2023-08-07T14:51:38.052Z,17.6
2023-08-07T14:52:54.178Z,17.6
2023-08-07T14:54:10.314Z,17.5
2023-08-07T14:55:26.430Z,17.5
2023-08-07T14:56:42.580Z,17.6
2023-08-07T14:57:58.707Z,17.6
2023-08-07T14:59:14.837Z,17.6
2023-08-07T15:00:30.979Z,17.5
2023-08-07T15:01:47.103Z,17.5
2023-08-07T15:03:03.238Z,17.4
2023-08-07T15:04:19.371Z,17.4
2023-08-07T15:05:35.501Z,17.4
2023-08-07T15:06:50.649Z,17.5
2023-08-07T15:08:06.785Z,17.5
2023-08-07T15:09:22.915Z,17.5
2023-08-07T15:10:39.051Z,17.6
2023-08-07T15:11:55.179Z,17.6
2023-08-07T15:13:11.320Z,17.7
2023-08-07T15:14:27.446Z,17.8
2023-08-07T15:15:43.572Z,17.8
2023-08-07T15:16:59.712Z,17.8
2023-08-07T15:18:15.843Z,17.7
2023-08-07T15:19:31.974Z,17.8
2023-08-07T15:20:48.111Z,17.7
2023-08-07T15:22:04.234Z,17.7
2023-08-07T15:23:20.367Z,17.7
2023-08-07T15:24:36.506Z,17.7
2023-08-07T15:25:51.652Z,17.8
2023-08-07T15:27:07.785Z,17.8
2023-08-07T15:28:23.914Z,17.9
2023-08-07T15:29:40.056Z,17.9
2023-08-07T15:30:56.188Z,17.9
2023-08-07T15:32:12.312Z,17.9
2023-08-07T15:33:28.444Z,17.9
2023-08-07T15:34:44.580Z,17.9
2023-08-07T15:36:00.709Z,17.8
2023-08-07T15:37:16.840Z,17.8
2023-08-07T15:38:32.979Z,17.8
2023-08-07T15:39:49.113Z,17.8
2023-08-07T15:41:05.241Z,17.9
2023-08-07T15:42:20.387Z,17.9
2023-08-07T15:43:36.520Z,17.9
2023-08-07T15:46:08.782Z,17.9
2023-08-07T15:47:23.949Z,17.9
2023-08-07T15:48:40.075Z,17.8
2023-08-07T15:49:56.212Z,17.7
2023-08-07T15:51:12.339Z,17.7
2023-08-07T15:52:28.470Z,17.7
2023-08-07T15:53:44.603Z,17.7
2023-08-07T15:55:00.737Z,17.6
2023-08-07T15:56:16.873Z,17.5
2023-08-07T15:57:33.001Z,17.5
2023-08-07T15:58:49.137Z,17.4
2023-08-07T16:00:05.259Z,17.4
2023-08-07T16:01:21.391Z,17.4
2023-08-07T16:02:37.528Z,17.3
2023-08-07T16:03:52.680Z,17.3
2023-08-07T16:05:08.807Z,17.3
2023-08-07T16:06:24.941Z,17.3
2023-08-07T16:07:41.072Z,17.3
2023-08-07T16:08:57.206Z,17.3
2023-08-07T16:10:13.337Z,17.3
2023-08-07T16:11:29.477Z,17.3
2023-08-07T16:12:45.614Z,17.4
2023-08-07T16:14:01.740Z,17.4
2023-08-07T16:15:17.870Z,17.4
2023-08-07T16:16:34.001Z,17.3
2023-08-07T16:17:50.139Z,17.3
2023-08-07T16:19:06.262Z,17.3
2023-08-07T16:20:21.421Z,17.2
2023-08-07T16:21:37.552Z,17.2
2023-08-07T16:22:53.673Z,17.1
2023-08-07T16:24:09.810Z,17.2
2023-08-07T16:25:25.946Z,17.2
2023-08-07T16:26:42.080Z,17.1
2023-08-07T16:27:58.206Z,17.1
2023-08-07T16:29:14.335Z,17.1
2023-08-07T16:30:30.475Z,17.1
2023-08-07T16:31:46.610Z,17.1
2023-08-07T16:33:02.734Z,17.1
2023-08-07T16:34:18.871Z,17.1
2023-08-07T16:35:35.002Z,17
2023-08-07T16:36:51.133Z,17
2023-08-07T16:38:06.281Z,16.9
2023-08-07T16:39:22.408Z,16.8
2023-08-07T16:40:38.542Z,16.8
2023-08-07T16:41:54.679Z,16.7
2023-08-07T16:43:10.803Z,16.7
2023-08-07T16:44:26.945Z,16.6
2023-08-07T16:45:43.077Z,16.7
2023-08-07T16:46:59.203Z,16.7
2023-08-07T16:48:15.330Z,16.7
2023-08-07T16:49:31.470Z,16.7
2023-08-07T16:50:47.603Z,16.7
2023-08-07T16:52:03.730Z,16.7
2023-08-07T16:53:19.864Z,16.8
2023-08-07T16:54:35.017Z,16.8
2023-08-07T16:55:51.147Z,16.9
2023-08-07T16:57:07.284Z,16.9
2023-08-07T16:58:23.413Z,17